Time;durP1;ratioP1;P1;durP2;ratioP2;P2;SDS_P1;SDS_P2;PMS_P1;PMS_P2;Temp;Humidity;BMP_temperature;BMP_pressure;BME280_temperature;BME280_humidity;BME280_pressure;Samples;Min_cycle;Max_cycle;Signal;HPM_P1;HPM_P2
2022/05/14 00:00:28;;;;;;;;;;;;;;;11.63;53.32;100586.31;105646;1271;24341;-63
2022/05/14 00:03:05;;;;;;;;;;;;;;;11.57;53.18;100590.11;105623;1272;27025;-61
2022/05/14 00:05:36;;;;;;;;;;;;;;;11.52;53.13;100589.66;105756;1271;25383;-62
2022/05/14 00:08:06;;;;;;;;;;;;;;;11.50;53.12;100586.83;105736;1272;22524;-63
2022/05/14 00:13:03;;;;;;;;;;;;;;;11.47;53.11;100588.70;105643;1271;22972;-62
2022/05/14 00:13:30;;;;;;;;;;;;;;;11.46;53.25;100586.54;105577;1271;22527;-61
2022/05/14 00:15:59;;;;;;;;;;;;;;;11.42;53.27;100588.39;105877;1271;25323;-62
2022/05/14 00:18:29;;;;;;;;;;;;;;;11.37;53.46;100587.98;105851;1271;26202;-62
2022/05/14 00:20:59;;;;;;;;;;;;;;;11.33;53.42;100589.79;105704;1271;22532;-62
2022/05/14 00:23:29;;;;;;;;;;;;;;;11.31;53.37;100588.58;105999;1271;22507;-62
2022/05/14 00:25:59;;;;;;;;;;;;;;;11.29;53.49;100592.27;105842;1271;22518;-62
2022/05/14 00:28:29;;;;;;;;;;;;;;;11.26;53.33;100593.52;105818;1271;22537;-61
2022/05/14 00:30:59;;;;;;;;;;;;;;;11.23;53.23;100589.67;105629;1271;22626;-62
2022/05/14 00:33:28;;;;;;;;;;;;;;;11.21;53.36;100596.38;105811;1271;24448;-61
2022/05/14 00:35:58;;;;;;;;;;;;;;;11.19;53.38;100593.48;105858;1271;22509;-61
2022/05/14 00:38:28;;;;;;;;;;;;;;;11.16;53.48;100598.40;105876;1271;22525;-60
2022/05/14 00:40:59;;;;;;;;;;;;;;;11.13;53.50;100598.02;105779;1271;22519;-61
2022/05/14 00:43:30;;;;;;;;;;;;;;;11.08;53.71;100601.07;105662;1271;22536;-62
2022/05/14 00:46:01;;;;;;;;;;;;;;;11.04;53.64;100603.16;105730;1271;22531;-62
2022/05/14 00:48:35;;;;;;;;;;;;;;;11.01;53.77;100601.72;105612;1271;22515;-62
2022/05/14 00:51:07;;;;;;;;;;;;;;;10.97;53.93;100602.98;105824;1271;25361;-60
2022/05/14 00:53:38;;;;;;;;;;;;;;;10.93;54.09;100604.12;105692;1271;25668;-60
2022/05/14 00:56:10;;;;;;;;;;;;;;;10.88;54.20;100607.09;105726;1272;22540;-62
2022/05/14 00:58:44;;;;;;;;;;;;;;;10.82;54.33;100608.08;105818;1271;22524;-60
2022/05/14 01:01:13;;;;;;;;;;;;;;;10.78;54.55;100608.27;105728;1271;23392;-61
2022/05/14 01:03:44;;;;;;;;;;;;;;;10.72;54.68;100608.49;105748;1272;22528;-61
2022/05/14 01:06:15;;;;;;;;;;;;;;;10.68;54.77;100606.86;106031;1271;23645;-61
2022/05/14 01:08:44;;;;;;;;;;;;;;;10.63;55.00;100604.27;105813;1272;25629;-61
2022/05/14 01:11:15;;;;;;;;;;;;;;;10.59;55.22;100596.90;105523;1271;22537;-61
2022/05/14 01:13:44;;;;;;;;;;;;;;;10.54;55.11;100599.27;105722;1272;22529;-61
2022/05/14 01:16:15;;;;;;;;;;;;;;;10.51;55.34;100600.27;105884;1271;22521;-62
2022/05/14 01:18:44;;;;;;;;;;;;;;;10.48;55.30;100596.93;105641;1272;22545;-61
2022/05/14 01:21:19;;;;;;;;;;;;;;;10.46;55.14;100596.05;105610;1271;23093;-62
2022/05/14 01:26:46;;;;;;;;;;;;;;;10.39;55.58;100594.08;105286;1278;25239;-62
2022/05/14 01:29:19;;;;;;;;;;;;;;;10.34;55.74;100593.26;105471;1278;25514;-62
2022/05/14 01:31:49;;;;;;;;;;;;;;;10.32;55.72;100589.73;105421;1277;24410;-60
2022/05/14 01:34:20;;;;;;;;;;;;;;;10.28;55.80;100590.59;105476;1278;25454;-59
2022/05/14 01:36:50;;;;;;;;;;;;;;;10.25;55.73;100588.65;105413;1278;25259;-60
2022/05/14 01:39:20;;;;;;;;;;;;;;;10.22;56.06;100590.14;105413;1277;22532;-61
2022/05/14 01:41:50;;;;;;;;;;;;;;;10.19;55.96;100583.81;105609;1278;24250;-61
2022/05/14 01:44:20;;;;;;;;;;;;;;;10.16;56.10;100582.82;105424;1277;22505;-59
2022/05/14 01:46:50;;;;;;;;;;;;;;;10.13;56.11;100582.05;105304;1278;22595;-61
2022/05/14 01:49:20;;;;;;;;;;;;;;;10.12;56.03;100580.02;105387;1277;22521;-62
2022/05/14 01:51:50;;;;;;;;;;;;;;;10.10;56.00;100581.06;105366;1277;22527;-59
2022/05/14 01:54:19;;;;;;;;;;;;;;;10.08;56.07;100577.31;105443;1276;22547;-60
2022/05/14 01:56:49;;;;;;;;;;;;;;;10.06;56.21;100579.08;105428;1277;22534;-60
2022/05/14 01:59:18;;;;;;;;;;;;;;;10.03;56.30;100579.52;105409;1277;23269;-60
2022/05/14 02:01:48;;;;;;;;;;;;;;;10.01;56.29;100576.52;105365;1278;24186;-60
2022/05/14 02:04:18;;;;;;;;;;;;;;;9.98;56.39;100577.39;105578;1271;25301;-60
2022/05/14 02:06:47;;;;;;;;;;;;;;;9.95;56.45;100577.42;106420;1262;22572;-48
2022/05/14 02:09:17;;;;;;;;;;;;;;;9.93;56.44;100578.73;106012;1271;22533;-48
2022/05/14 02:11:47;;;;;;;;;;;;;;;9.90;56.72;100582.10;105859;1272;22544;-50
2022/05/14 02:14:17;;;;;;;;;;;;;;;9.87;56.80;100583.99;105792;1271;22604;-51
2022/05/14 02:16:47;;;;;;;;;;;;;;;9.84;56.78;100583.16;106410;1271;22566;-53
2022/05/14 02:19:17;;;;;;;;;;;;;;;9.81;56.90;100579.89;106041;1271;22543;-50
2022/05/14 02:21:47;;;;;;;;;;;;;;;9.78;56.87;100579.95;105807;1272;23800;-49
2022/05/14 02:24:17;;;;;;;;;;;;;;;9.76;56.75;100578.89;105852;1271;24040;-48
2022/05/14 02:26:46;;;;;;;;;;;;;;;9.75;56.80;100575.70;105931;1271;22523;-50
2022/05/14 02:29:16;;;;;;;;;;;;;;;9.72;56.97;100574.52;105956;1271;22512;-48
2022/05/14 02:31:47;;;;;;;;;;;;;;;9.69;57.26;100577.64;105710;1271;22529;-48
2022/05/14 02:34:17;;;;;;;;;;;;;;;9.65;57.21;100577.00;105887;1271;22532;-52
2022/05/14 02:36:46;;;;;;;;;;;;;;;9.61;57.64;100578.43;105737;1271;22550;-50
2022/05/14 02:39:16;;;;;;;;;;;;;;;9.58;57.55;100574.94;105826;1271;22530;-48
2022/05/14 02:41:45;;;;;;;;;;;;;;;9.55;57.66;100573.13;105999;1272;24344;-51
2022/05/14 02:44:16;;;;;;;;;;;;;;;9.52;58.21;100573.91;105226;1271;638208;-49
2022/05/14 02:46:46;;;;;;;;;;;;;;;9.48;58.29;100577.59;106011;1271;25667;-48
2022/05/14 02:49:16;;;;;;;;;;;;;;;9.44;58.48;100580.38;106000;1271;25548;-48
2022/05/14 02:51:47;;;;;;;;;;;;;;;9.41;58.41;100580.12;106007;1271;25341;-50
2022/05/14 02:54:16;;;;;;;;;;;;;;;9.38;58.54;100573.31;105982;1271;22637;-48
2022/05/14 02:56:46;;;;;;;;;;;;;;;9.37;58.64;100564.39;105770;1272;22558;-51
2022/05/14 02:59:15;;;;;;;;;;;;;;;9.35;58.45;100562.62;106085;1271;24255;-52
2022/05/14 03:01:52;;;;;;;;;;;;;;;9.35;58.46;100562.01;106167;1271;22542;-49
2022/05/14 03:04:23;;;;;;;;;;;;;;;9.34;58.53;100560.85;105952;1272;25300;-49
2022/05/14 03:06:54;;;;;;;;;;;;;;;9.32;58.88;100558.78;106013;1271;22535;-48
2022/05/14 03:09:24;;;;;;;;;;;;;;;9.29;59.02;100561.04;105975;1271;22521;-49
2022/05/14 03:11:54;;;;;;;;;;;;;;;9.28;59.07;100558.41;106090;1271;27102;-48
2022/05/14 03:14:24;;;;;;;;;;;;;;;9.24;59.42;100563.73;106161;1271;24195;-50
2022/05/14 03:16:53;;;;;;;;;;;;;;;9.21;59.36;100567.59;106048;1271;22531;-51
2022/05/14 03:19:23;;;;;;;;;;;;;;;9.20;59.40;100568.52;105995;1271;22538;-48
2022/05/14 03:21:53;;;;;;;;;;;;;;;9.18;59.69;100564.92;105701;1271;24239;-49
2022/05/14 03:24:24;;;;;;;;;;;;;;;9.15;59.79;100566.89;105688;1271;24682;-50
2022/05/14 03:26:54;;;;;;;;;;;;;;;9.13;59.96;100565.79;105971;1271;22699;-51
2022/05/14 03:29:24;;;;;;;;;;;;;;;9.11;60.06;100562.67;105801;1271;22732;-51
2022/05/14 03:31:57;;;;;;;;;;;;;;;9.11;60.02;100564.04;105703;1271;25919;-49
2022/05/14 03:34:27;;;;;;;;;;;;;;;9.11;59.90;100559.50;105777;1271;22525;-48
2022/05/14 03:36:57;;;;;;;;;;;;;;;9.12;60.10;100559.48;105944;1271;22745;-49
2022/05/14 03:39:26;;;;;;;;;;;;;;;9.12;60.10;100557.98;105991;1270;25414;-48
2022/05/14 03:41:56;;;;;;;;;;;;;;;9.12;59.97;100555.34;105941;1271;25282;-49
2022/05/14 03:44:29;;;;;;;;;;;;;;;9.13;59.84;100555.93;105810;1271;22527;-49
2022/05/14 03:46:59;;;;;;;;;;;;;;;9.13;59.76;100556.86;105888;1271;25337;-48
2022/05/14 03:49:29;;;;;;;;;;;;;;;9.15;60.15;100563.30;105994;1271;22533;-49
2022/05/14 03:51:58;;;;;;;;;;;;;;;9.16;60.03;100565.44;105804;1271;22531;-50
2022/05/14 03:54:28;;;;;;;;;;;;;;;9.17;60.46;100568.08;105925;1271;24221;-48
2022/05/14 03:56:57;;;;;;;;;;;;;;;9.17;60.49;100572.23;105933;1271;25388;-51
2022/05/14 03:59:27;;;;;;;;;;;;;;;9.17;60.81;100570.30;106197;1271;25388;-49
2022/05/14 04:01:57;;;;;;;;;;;;;;;9.19;60.84;100571.11;105945;1275;22545;-49
2022/05/14 04:04:26;;;;;;;;;;;;;;;9.20;60.67;100576.96;105776;1271;24218;-50
2022/05/14 04:06:56;;;;;;;;;;;;;;;9.23;60.92;100577.25;105950;1271;22596;-50
2022/05/14 04:09:26;;;;;;;;;;;;;;;9.25;61.13;100576.91;105859;1274;22512;-48
2022/05/14 04:11:56;;;;;;;;;;;;;;;9.28;61.28;100580.20;106068;1271;25317;-49
2022/05/14 04:14:26;;;;;;;;;;;;;;;9.31;61.38;100583.83;105813;1271;22533;-52
2022/05/14 04:16:58;;;;;;;;;;;;;;;9.34;61.63;100578.80;106058;1271;22533;-51
2022/05/14 04:19:28;;;;;;;;;;;;;;;9.39;61.79;100580.61;106543;1271;22500;-51
2022/05/14 04:21:57;;;;;;;;;;;;;;;9.43;62.36;100581.14;106034;1271;25501;-52
2022/05/14 04:24:27;;;;;;;;;;;;;;;9.49;62.62;100580.40;105696;1271;24223;-49
2022/05/14 04:26:57;;;;;;;;;;;;;;;9.56;62.64;100579.73;105800;1271;22579;-49
2022/05/14 04:29:27;;;;;;;;;;;;;;;9.62;62.56;100582.15;106017;1271;22552;-48
2022/05/14 04:31:56;;;;;;;;;;;;;;;9.69;63.01;100582.02;105676;1271;22527;-49
2022/05/14 04:34:26;;;;;;;;;;;;;;;9.76;63.28;100585.52;105928;1271;22512;-48
2022/05/14 04:36:56;;;;;;;;;;;;;;;9.86;63.48;100580.57;105731;1271;25223;-51
2022/05/14 04:39:31;;;;;;;;;;;;;;;9.93;63.57;100578.39;105755;1271;22532;-49
2022/05/14 04:42:01;;;;;;;;;;;;;;;10.00;63.52;100573.85;105808;1271;22676;-49
2022/05/14 04:44:32;;;;;;;;;;;;;;;10.07;63.72;100572.16;105859;1271;23090;-51
2022/05/14 04:47:02;;;;;;;;;;;;;;;10.16;63.80;100572.98;105834;1274;22538;-52
2022/05/14 04:49:32;;;;;;;;;;;;;;;10.25;63.82;100571.51;106182;1271;25350;-50
2022/05/14 04:52:03;;;;;;;;;;;;;;;10.35;64.00;100571.05;106086;1270;25398;-49
2022/05/14 04:54:33;;;;;;;;;;;;;;;10.44;64.08;100568.64;106056;1271;22740;-50
2022/05/14 04:57:03;;;;;;;;;;;;;;;10.56;64.18;100571.41;105938;1273;25223;-48
2022/05/14 04:59:33;;;;;;;;;;;;;;;10.68;64.34;100571.09;105837;1273;24224;-51
2022/05/14 05:04:50;;;;;;;;;;;;;;;10.94;64.35;100558.18;105582;1274;25526;-49
2022/05/14 05:07:21;;;;;;;;;;;;;;;11.05;64.33;100556.19;105661;1271;25462;-51
2022/05/14 05:09:51;;;;;;;;;;;;;;;11.18;64.29;100555.39;105731;1271;23174;-49
2022/05/14 05:12:20;;;;;;;;;;;;;;;11.31;64.39;100557.56;105632;1271;22524;-50
2022/05/14 05:14:50;;;;;;;;;;;;;;;11.43;64.13;100554.81;105675;1271;22512;-52
2022/05/14 05:17:20;;;;;;;;;;;;;;;11.56;64.20;100560.14;105721;1274;25505;-50
2022/05/14 05:19:50;;;;;;;;;;;;;;;11.69;64.17;100564.66;106098;1271;24244;-52
2022/05/14 05:22:20;;;;;;;;;;;;;;;11.82;64.16;100563.65;105867;1274;25228;-53
2022/05/14 05:24:49;;;;;;;;;;;;;;;11.95;64.28;100570.66;105803;1271;22607;-49
2022/05/14 05:27:19;;;;;;;;;;;;;;;12.09;64.16;100572.44;105758;1271;23924;-48
2022/05/14 05:29:49;;;;;;;;;;;;;;;12.22;63.89;100576.29;105826;1271;22537;-51
2022/05/14 05:32:18;;;;;;;;;;;;;;;12.36;64.15;100577.85;105858;1271;22672;-50
2022/05/14 05:34:48;;;;;;;;;;;;;;;12.52;63.97;100579.65;105747;1271;25302;-51
2022/05/14 05:37:19;;;;;;;;;;;;;;;12.69;63.70;100579.58;105798;1271;23021;-49
2022/05/14 05:39:49;;;;;;;;;;;;;;;12.87;63.68;100583.31;105752;1271;25228;-49
2022/05/14 05:42:18;;;;;;;;;;;;;;;13.02;63.28;100592.06;105623;1272;22531;-54
2022/05/14 05:44:48;;;;;;;;;;;;;;;13.13;63.05;100586.63;105878;1271;22559;-49
2022/05/14 05:47:18;;;;;;;;;;;;;;;13.22;63.08;100585.94;105883;1271;22518;-49
2022/05/14 05:49:48;;;;;;;;;;;;;;;13.33;62.75;100582.23;105875;1274;22537;-49
2022/05/14 05:52:18;;;;;;;;;;;;;;;13.47;62.74;100578.52;105733;1271;22535;-49
2022/05/14 05:57:35;;;;;;;;;;;;;;;13.78;62.24;100585.02;105767;1271;25277;-48
2022/05/14 06:00:07;;;;;;;;;;;;;;;13.94;62.05;100583.66;105646;1271;22529;-53
2022/05/14 06:02:37;;;;;;;;;;;;;;;14.09;61.76;100589.84;106019;1271;24292;-52
2022/05/14 06:05:08;;;;;;;;;;;;;;;14.23;61.02;100588.80;105885;1271;25510;-51
2022/05/14 06:07:39;;;;;;;;;;;;;;;14.35;60.61;100590.80;106134;1271;22528;-49
2022/05/14 06:10:13;;;;;;;;;;;;;;;14.47;60.19;100592.79;105791;1271;25299;-48
2022/05/14 06:12:43;;;;;;;;;;;;;;;14.58;59.97;100593.35;105817;1271;25206;-49
2022/05/14 06:15:14;;;;;;;;;;;;;;;14.70;59.74;100594.20;105807;1271;25233;-49
2022/05/14 06:17:44;;;;;;;;;;;;;;;14.82;59.29;100589.75;106307;1271;22528;-54
2022/05/14 06:20:18;;;;;;;;;;;;;;;14.93;59.13;100596.64;106145;1274;22511;-52
2022/05/14 06:22:48;;;;;;;;;;;;;;;15.04;58.49;100600.14;106237;1271;25323;-52
2022/05/14 06:25:17;;;;;;;;;;;;;;;15.11;57.76;100600.39;105970;1271;25465;-52
2022/05/14 06:27:48;;;;;;;;;;;;;;;15.17;57.75;100599.64;106055;1271;22544;-52
2022/05/14 06:30:19;;;;;;;;;;;;;;;15.23;57.71;100603.56;105860;1271;22712;-49
2022/05/14 06:32:48;;;;;;;;;;;;;;;15.29;57.43;100606.42;105771;1272;25369;-51
2022/05/14 06:35:18;;;;;;;;;;;;;;;15.37;57.12;100604.16;105933;1271;22521;-50
2022/05/14 06:37:48;;;;;;;;;;;;;;;15.45;56.43;100609.85;105664;1271;22512;-49
2022/05/14 06:40:18;;;;;;;;;;;;;;;15.52;56.31;100612.05;105773;1271;22959;-50
2022/05/14 06:42:47;;;;;;;;;;;;;;;15.60;56.42;100607.88;105557;1271;24229;-52
2022/05/14 06:45:18;;;;;;;;;;;;;;;15.65;55.86;100603.26;105695;1271;22518;-49
2022/05/14 06:47:48;;;;;;;;;;;;;;;15.67;55.68;100601.62;105808;1271;22821;-50
2022/05/14 06:50:18;;;;;;;;;;;;;;;15.70;55.38;100602.25;105670;1271;25601;-50
2022/05/14 06:52:49;;;;;;;;;;;;;;;15.77;55.24;100599.82;105623;1271;22565;-50
2022/05/14 06:55:21;;;;;;;;;;;;;;;15.87;55.40;100598.62;105615;1271;22672;-51
2022/05/14 06:57:51;;;;;;;;;;;;;;;15.97;55.32;100592.40;105729;1271;22540;-49
2022/05/14 07:00:22;;;;;;;;;;;;;;;16.08;55.20;100591.35;105778;1273;24379;-49
2022/05/14 07:06:37;;;;;;;;;;;;;;;16.19;55.06;100590.81;105648;1271;23182;-49
2022/05/14 07:08:29;;;;;;;;;;;;;;;16.40;54.54;100585.87;105816;1272;24734;-50
2022/05/14 07:10:59;;;;;;;;;;;;;;;16.49;54.33;100578.93;105397;1271;22548;-48
2022/05/14 07:13:29;;;;;;;;;;;;;;;16.61;54.31;100583.41;105784;1271;24410;-49
2022/05/14 07:16:00;;;;;;;;;;;;;;;16.71;53.72;100580.94;105779;1271;22524;-50
2022/05/14 07:18:30;;;;;;;;;;;;;;;16.79;53.88;100578.17;105932;1271;22599;-51
2022/05/14 07:20:59;;;;;;;;;;;;;;;16.85;53.71;100577.39;105884;1271;26623;-49
2022/05/14 07:23:29;;;;;;;;;;;;;;;16.92;53.74;100579.48;105886;1271;25388;-48
2022/05/14 07:26:03;;;;;;;;;;;;;;;16.95;53.09;100574.91;105760;1271;22541;-49
2022/05/14 07:28:34;;;;;;;;;;;;;;;16.97;52.89;100572.55;106068;1271;22572;-49
2022/05/14 07:31:04;;;;;;;;;;;;;;;17.01;52.87;100565.52;106118;1270;25194;-49
2022/05/14 07:33:36;;;;;;;;;;;;;;;17.08;52.34;100568.59;105860;1271;24300;-48
2022/05/14 07:36:08;;;;;;;;;;;;;;;17.13;51.60;100566.52;105657;1271;22531;-49
2022/05/14 07:38:39;;;;;;;;;;;;;;;17.24;51.45;100564.64;105742;1272;25413;-48
2022/05/14 07:41:11;;;;;;;;;;;;;;;17.38;51.18;100561.06;105697;1271;24348;-53
2022/05/14 07:43:42;;;;;;;;;;;;;;;17.54;51.19;100559.13;105836;1271;22519;-51
2022/05/14 07:46:15;;;;;;;;;;;;;;;17.70;50.57;100559.20;105670;1271;25349;-49
2022/05/14 07:48:45;;;;;;;;;;;;;;;17.85;50.10;100559.75;105681;1271;25628;-52
2022/05/14 07:51:16;;;;;;;;;;;;;;;17.95;49.94;100559.58;105914;1271;22508;-51
2022/05/14 07:53:45;;;;;;;;;;;;;;;18.08;49.11;100556.06;105934;1271;22609;-52
2022/05/14 07:56:15;;;;;;;;;;;;;;;18.18;47.66;100551.94;106025;1271;22974;-52
2022/05/14 07:58:46;;;;;;;;;;;;;;;18.21;46.54;100551.77;105658;1271;22525;-50
2022/05/14 08:01:16;;;;;;;;;;;;;;;18.16;45.99;100555.23;105561;1272;22532;-49
2022/05/14 08:03:47;;;;;;;;;;;;;;;18.09;45.72;100559.24;105783;1271;24444;-50
2022/05/14 08:06:17;;;;;;;;;;;;;;;18.07;45.28;100556.89;105725;1272;22620;-49
2022/05/14 08:08:47;;;;;;;;;;;;;;;18.06;45.41;100557.31;105805;1272;22541;-52
2022/05/14 08:11:17;;;;;;;;;;;;;;;18.14;46.00;100555.20;105866;1271;24231;-50
2022/05/14 08:13:46;;;;;;;;;;;;;;;18.21;45.87;100553.04;105711;1271;24382;-52
2022/05/14 08:16:16;;;;;;;;;;;;;;;18.22;45.34;100550.32;105779;1271;24300;-51
2022/05/14 08:18:46;;;;;;;;;;;;;;;18.19;45.43;100557.63;105992;1271;23548;-52
2022/05/14 08:26:52;;;;;;;;;;;;;;;18.30;44.96;100547.78;105538;1271;24137;-50
2022/05/14 08:29:22;;;;;;;;;;;;;;;18.34;44.04;100544.41;105540;1271;25979;-52
2022/05/14 08:31:52;;;;;;;;;;;;;;;18.34;44.99;100546.38;105598;1271;22606;-54
2022/05/14 08:34:22;;;;;;;;;;;;;;;18.40;44.93;100548.94;105714;1271;22735;-53
2022/05/14 08:36:52;;;;;;;;;;;;;;;18.41;44.16;100538.66;105760;1270;22686;-48
2022/05/14 08:39:21;;;;;;;;;;;;;;;18.40;43.81;100544.42;105930;1270;23097;-48
2022/05/14 08:41:52;;;;;;;;;;;;;;;18.43;43.72;100544.46;105886;1270;23943;-52
2022/05/14 08:44:24;;;;;;;;;;;;;;;18.52;43.80;100545.80;105610;1271;22508;-54
2022/05/14 08:46:55;;;;;;;;;;;;;;;18.64;43.83;100535.15;106518;1272;22524;-49
2022/05/14 08:49:30;;;;;;;;;;;;;;;18.75;43.94;100536.33;105899;1272;22680;-50
2022/05/14 08:52:00;;;;;;;;;;;;;;;18.86;43.80;100538.34;106060;1270;22534;-49
2022/05/14 08:54:30;;;;;;;;;;;;;;;18.97;43.81;100536.21;105818;1271;22530;-50
2022/05/14 08:57:06;;;;;;;;;;;;;;;19.06;43.64;100540.80;106142;1271;23111;-51
2022/05/14 08:59:44;;;;;;;;;;;;;;;19.07;43.19;100538.00;105637;1272;24394;-49
2022/05/14 09:02:16;;;;;;;;;;;;;;;19.04;43.33;100539.78;105700;1271;22537;-49
2022/05/14 09:04:48;;;;;;;;;;;;;;;19.02;42.96;100544.64;105895;1271;23194;-53
2022/05/14 09:07:18;;;;;;;;;;;;;;;19.05;42.76;100546.33;105463;1271;24418;-50
2022/05/14 09:09:52;;;;;;;;;;;;;;;18.97;42.31;100548.26;105594;1271;24291;-53
2022/05/14 09:12:23;;;;;;;;;;;;;;;18.86;42.06;100539.71;105868;1271;24422;-55
2022/05/14 09:14:57;;;;;;;;;;;;;;;18.83;42.51;100542.05;105645;1271;25519;-54
2022/05/14 09:17:29;;;;;;;;;;;;;;;18.92;42.29;100545.94;105891;1270;22528;-52
2022/05/14 09:19:59;;;;;;;;;;;;;;;18.99;42.48;100539.13;105640;1272;22528;-51
2022/05/14 09:22:32;;;;;;;;;;;;;;;19.11;42.14;100530.35;105857;1271;22550;-54
2022/05/14 09:25:04;;;;;;;;;;;;;;;19.09;41.97;100535.70;105715;1272;22522;-51
2022/05/14 09:27:39;;;;;;;;;;;;;;;19.08;41.89;100542.98;105797;1271;24260;-50
2022/05/14 09:30:12;;;;;;;;;;;;;;;19.01;42.09;100540.34;105886;1271;23948;-54
2022/05/14 09:32:44;;;;;;;;;;;;;;;18.97;42.00;100537.04;105705;1271;22550;-54
2022/05/14 09:35:16;;;;;;;;;;;;;;;18.92;42.20;100532.51;106286;1271;22528;-53
2022/05/14 09:37:50;;;;;;;;;;;;;;;18.87;42.12;100538.61;105688;1271;22546;-51
2022/05/14 09:40:24;;;;;;;;;;;;;;;18.86;42.33;100540.96;106027;1272;23025;-51
2022/05/14 09:42:55;;;;;;;;;;;;;;;18.93;42.03;100537.86;105787;1271;25233;-49
2022/05/14 09:45:27;;;;;;;;;;;;;;;18.97;41.65;100535.65;105676;1269;24243;-50
2022/05/14 09:47:57;;;;;;;;;;;;;;;18.91;41.69;100530.67;105768;1271;24314;-49
2022/05/14 09:50:31;;;;;;;;;;;;;;;18.92;41.96;100532.56;106067;1271;24956;-51
2022/05/14 09:53:02;;;;;;;;;;;;;;;19.07;41.48;100523.13;106285;1271;24253;-52
2022/05/14 09:55:50;;;;;;;;;;;;;;;19.23;41.32;100521.05;105841;1272;22538;-52
2022/05/14 09:58:25;;;;;;;;;;;;;;;19.32;40.56;100517.13;105656;1271;22597;-53
2022/05/14 10:00:59;;;;;;;;;;;;;;;19.36;40.87;100517.13;105489;1272;22515;-53
2022/05/14 10:03:37;;;;;;;;;;;;;;;19.52;41.27;100516.55;105634;1271;22653;-52
2022/05/14 10:06:15;;;;;;;;;;;;;;;19.71;40.92;100519.34;105486;1271;25556;-50
2022/05/14 10:08:51;;;;;;;;;;;;;;;19.69;40.25;100518.53;105587;1271;22680;-49
2022/05/14 10:11:23;;;;;;;;;;;;;;;19.55;40.54;100512.86;105620;1271;22531;-49
2022/05/14 10:14:00;;;;;;;;;;;;;;;19.39;40.64;100515.11;105732;1271;22519;-51
2022/05/14 10:16:35;;;;;;;;;;;;;;;19.25;41.35;100516.19;105815;1271;25221;-50
2022/05/14 10:19:15;;;;;;;;;;;;;;;19.29;41.49;100515.52;105898;1271;24209;-50
2022/05/14 10:21:50;;;;;;;;;;;;;;;19.37;41.40;100506.39;105722;1272;26703;-52
2022/05/14 10:27:19;;;;;;;;;;;;;;;19.31;41.36;100505.67;105709;1271;24459;-51
2022/05/14 10:29:55;;;;;;;;;;;;;;;19.27;41.68;100503.45;105696;1271;22531;-51
2022/05/14 10:32:26;;;;;;;;;;;;;;;19.21;41.31;100512.93;106227;1271;25329;-51
2022/05/14 10:34:58;;;;;;;;;;;;;;;19.11;41.89;100505.48;105519;1272;22527;-51
2022/05/14 10:37:32;;;;;;;;;;;;;;;19.11;41.67;100505.45;105886;1271;22540;-48
2022/05/14 10:40:06;;;;;;;;;;;;;;;19.05;41.74;100511.27;105646;1271;22566;-48
2022/05/14 10:42:41;;;;;;;;;;;;;;;18.97;42.00;100511.06;106966;1270;22535;-49
2022/05/14 10:45:14;;;;;;;;;;;;;;;18.92;41.60;100512.75;105668;1271;25236;-50
2022/05/14 10:47:47;;;;;;;;;;;;;;;18.86;41.64;100514.11;105677;1270;25411;-54
2022/05/14 10:50:18;;;;;;;;;;;;;;;18.79;41.88;100510.37;105540;1271;26704;-48
2022/05/14 10:52:49;;;;;;;;;;;;;;;18.82;41.75;100507.15;105521;1271;25880;-51
2022/05/14 10:55:22;;;;;;;;;;;;;;;18.79;41.98;100506.73;105798;1271;22535;-55
2022/05/14 10:57:55;;;;;;;;;;;;;;;18.86;42.15;100507.31;105590;1271;25953;-53
2022/05/14 11:00:38;;;;;;;;;;;;;;;18.94;42.07;100507.34;105664;1271;24224;-51
2022/05/14 11:03:13;;;;;;;;;;;;;;;19.04;42.10;100500.13;108066;1271;25265;-49
2022/05/14 11:05:54;;;;;;;;;;;;;;;19.14;41.86;100503.61;105712;1271;23173;-51
2022/05/14 11:08:32;;;;;;;;;;;;;;;19.23;42.21;100502.52;105945;1272;25298;-49
2022/05/14 11:11:07;;;;;;;;;;;;;;;19.42;42.08;100498.98;105693;1271;22515;-50
2022/05/14 11:13:37;;;;;;;;;;;;;;;19.53;41.63;100496.67;105736;1271;25337;-49
2022/05/14 11:16:10;;;;;;;;;;;;;;;19.55;41.47;100493.45;105535;1271;25234;-55
2022/05/14 11:18:47;;;;;;;;;;;;;;;19.55;41.42;100492.16;109723;1271;23616;-52
2022/05/14 11:21:19;;;;;;;;;;;;;;;19.53;41.24;100496.16;109617;1272;22407;-51
2022/05/14 11:23:51;;;;;;;;;;;;;;;19.45;41.03;100495.08;108321;1271;25174;-51
2022/05/14 11:26:22;;;;;;;;;;;;;;;19.38;41.09;100497.43;109640;1271;22415;-53
2022/05/14 11:28:59;;;;;;;;;;;;;;;19.31;40.89;100501.45;106304;1271;22561;-52
2022/05/14 11:31:30;;;;;;;;;;;;;;;19.27;41.29;100502.11;105574;1272;22556;-52
2022/05/14 11:34:02;;;;;;;;;;;;;;;19.28;40.92;100495.88;105758;1272;23961;-51
2022/05/14 11:36:44;;;;;;;;;;;;;;;19.29;41.02;100497.77;105732;1271;22518;-51
2022/05/14 11:39:25;;;;;;;;;;;;;;;19.30;40.87;100494.37;105932;1271;26494;-51
2022/05/14 11:41:56;;;;;;;;;;;;;;;19.29;40.80;100495.14;105772;1271;25293;-50
2022/05/14 11:44:32;;;;;;;;;;;;;;;19.28;40.89;100485.69;106071;1271;23156;-51
2022/05/14 11:47:03;;;;;;;;;;;;;;;19.36;41.27;100483.09;105694;1271;22533;-50
2022/05/14 11:49:36;;;;;;;;;;;;;;;19.41;40.82;100479.56;105788;1271;23879;-50
2022/05/14 11:52:09;;;;;;;;;;;;;;;19.43;41.06;100482.59;105711;1271;24283;-51
2022/05/14 11:54:50;;;;;;;;;;;;;;;19.51;41.29;100485.27;106554;1271;22741;-50
2022/05/14 11:57:22;;;;;;;;;;;;;;;19.58;40.85;100486.71;105633;1271;22538;-51
2022/05/14 11:59:55;;;;;;;;;;;;;;;19.65;40.53;100484.09;105916;1271;22512;-52
2022/05/14 12:02:30;;;;;;;;;;;;;;;19.76;40.83;100484.39;106049;1272;24279;-49
2022/05/14 12:05:00;;;;;;;;;;;;;;;19.94;40.78;100487.46;105815;1271;22601;-49
2022/05/14 12:07:45;;;;;;;;;;;;;;;20.07;40.05;100486.03;106274;1271;24238;-51
2022/05/14 12:10:20;;;;;;;;;;;;;;;20.13;40.04;100487.78;105754;1271;24254;-49
2022/05/14 12:12:53;;;;;;;;;;;;;;;20.28;39.64;100477.79;105879;1271;25049;-50
2022/05/14 12:15:24;;;;;;;;;;;;;;;20.36;39.46;100474.39;105786;1271;23194;-49
2022/05/14 12:17:55;;;;;;;;;;;;;;;20.41;39.29;100471.56;105763;1271;22513;-50
2022/05/14 12:20:27;;;;;;;;;;;;;;;20.43;39.35;100474.27;106139;1271;22520;-53
2022/05/14 12:22:57;;;;;;;;;;;;;;;20.47;39.40;100476.27;105705;1271;25292;-50
2022/05/14 12:25:37;;;;;;;;;;;;;;;20.56;39.08;100480.74;105864;1272;22554;-53
2022/05/14 12:28:16;;;;;;;;;;;;;;;20.62;38.86;100479.25;106520;1270;22573;-51
2022/05/14 12:33:39;;;;;;;;;;;;;;;20.68;38.03;100472.99;105645;1272;24329;-54
2022/05/14 12:36:10;;;;;;;;;;;;;;;20.67;38.46;100468.48;105794;1272;22552;-53
2022/05/14 12:38:41;;;;;;;;;;;;;;;20.74;38.17;100467.79;105914;1271;22666;-55
2022/05/14 12:41:18;;;;;;;;;;;;;;;20.80;37.69;100471.55;106047;1271;22584;-56
2022/05/14 12:43:48;;;;;;;;;;;;;;;20.82;37.83;100466.24;105816;1271;22537;-53
2022/05/14 12:46:19;;;;;;;;;;;;;;;20.89;37.53;100471.46;105759;1271;22691;-54
2022/05/14 12:48:51;;;;;;;;;;;;;;;20.82;37.54;100466.98;105830;1271;25503;-53
2022/05/14 12:51:22;;;;;;;;;;;;;;;20.69;37.68;100469.27;106011;1271;25520;-56
2022/05/14 12:53:53;;;;;;;;;;;;;;;20.60;37.98;100468.88;105839;1271;22513;-55
2022/05/14 12:56:27;;;;;;;;;;;;;;;20.58;37.75;100474.38;106466;1271;25589;-52
2022/05/14 12:58:57;;;;;;;;;;;;;;;20.58;37.98;100469.88;105811;1271;22516;-50
2022/05/14 13:01:27;;;;;;;;;;;;;;;20.61;37.84;100471.63;105817;1271;25206;-49
2022/05/14 13:03:59;;;;;;;;;;;;;;;20.62;38.17;100468.52;105784;1272;22532;-50
2022/05/14 13:06:31;;;;;;;;;;;;;;;20.75;38.21;100465.50;105890;1271;24218;-50
2022/05/14 13:09:05;;;;;;;;;;;;;;;20.90;38.11;100465.61;105975;1271;24307;-50
2022/05/14 13:11:36;;;;;;;;;;;;;;;21.02;37.88;100461.63;105823;1272;24212;-50